• Join FlightAware (Why Join?)
  • Login
  • US Flag 
Rudolph Flight #1: Arrived! 
06:03PM EST


 

Airport Tracker/Info


-or-


 

Live Flight TrackerFlight Track Log ✈ SWA1223 ✈ 16-Apr-2013 ✈ KPHX - KEWR

Flight Track Log - Related Links

Times and Time Zones

All times are in EDT time to prevent confusion due to time zone crossing. See the SWA1223 flight status page for this flight to view local times or setup timezone preferences in your user account.

Time Position Orientation Groundspeed Altitude Reporting Facility
EDT Latitude Longitude Course Direction KTS MPH feet Rate Location/Type
01:21PM 33.4333 -112.0333 270° West 164 189 2,200  Level Phoenix TRACON
01:22PM 33.4333 -112.1000 270° West 215 247 3,700 1,860 Climbing Phoenix TRACON
01:23PM 33.4389 -112.1586 276° West 224 258 5,900 2,460 Climbing Albuquerque Center
01:24PM 33.5014 -112.1533 North 277 319 8,700 2,400 Climbing Albuquerque Center
01:25PM 33.5942 -112.0789 34° Northeast 342 394 10,900 2,400 Climbing Albuquerque Center
01:26PM 33.6919 -112.0053 32° Northeast 409 471 13,700 3,000 Climbing Albuquerque Center
01:27PM 33.7908 -111.9300 32° Northeast 421 484 17,200 3,240 Climbing Albuquerque Center
01:28PM 33.8956 -111.8483 33° Northeast 403 464 20,500 2,760 Climbing Albuquerque Center
01:29PM 34.0047 -111.7642 33° Northeast 428 493 23,000 2,220 Climbing Albuquerque Center
01:30PM 34.1114 -111.6892 30° Northeast 442 509 25,200 1,500 Climbing Albuquerque Center
01:31PM 34.2067 -111.6011 37° Northeast 469 540 26,100 900 Climbing Albuquerque Center
01:32PM 34.3186 -111.4975 37° Northeast 497 572 27,100 1,260 Climbing Albuquerque Center
01:33PM 34.4353 -111.3881 38° Northeast 522 601 28,800 1,980 Climbing Albuquerque Center
01:34PM 34.5733 -111.2569 38° Northeast 527 606 31,200 1,920 Climbing Albuquerque Center
01:35PM 34.6867 -111.1503 38° Northeast 520 598 32,800 960 Climbing Albuquerque Center
01:36PM 34.8000 -111.0444 37° Northeast 516 594 33,300 960 Climbing Albuquerque Center
01:37PM 34.9094 -110.9394 38° Northeast 506 582 34,900 1,440 Climbing Albuquerque Center
01:38PM 35.0189 -110.8353 38° Northeast 500 575 36,300 960 Climbing Albuquerque Center
01:39PM 35.1328 -110.6956 45° Northeast 503 579 37,000 300 Climbing Albuquerque Center
01:40PM 35.2100 -110.5644 54° Northeast 498 573 37,000  Level Albuquerque Center
01:41PM 35.3092 -110.4133 51° Northeast 508 585 37,000  Level Albuquerque Center
01:42PM 35.3967 -110.2775 52° Northeast 525 604 37,000  Level Albuquerque Center
01:43PM 35.4981 -110.1189 52° Northeast 529 609 37,000  Level Albuquerque Center
01:44PM 35.5856 -109.9825 52° Northeast 530 610 37,000  Level Albuquerque Center
01:45PM 35.6842 -109.8211 53° Northeast 529 609 37,000  Level Albuquerque Center
01:47PM 35.7700 -109.6869 52° Northeast 523 602 37,000  Level Albuquerque Center
01:48PM 35.8697 -109.5297 52° Northeast 520 598 37,000  Level Albuquerque Center
01:49PM 35.9547 -109.3936 52° Northeast 522 601 37,000  Level Albuquerque Center
01:50PM 36.0408 -109.2558 52° Northeast 524 603 37,000  Level Albuquerque Center
01:51PM 36.1325 -109.1067 53° Northeast 526 605 37,000  Level Albuquerque Center
01:52PM 36.2200 -108.9506 55° Northeast 519 597 37,000  Level Albuquerque Center
01:53PM 36.3008 -108.8092 55° Northeast 516 594 37,000  Level Albuquerque Center
01:54PM 36.4067 -108.6236 55° Northeast 512 589 37,000  Level Denver Center
01:55PM 36.4847 -108.4853 55° Northeast 511 588 37,000  Level Denver Center
01:56PM 36.5767 -108.3200 55° Northeast 518 596 37,000  Level Denver Center
01:57PM 36.6561 -108.1775 55° Northeast 521 600 37,000  Level Denver Center
01:58PM 36.7486 -108.0122 55° Northeast 520 598 37,000  Level Denver Center
01:59PM 36.8278 -107.8692 55° Northeast 523 602 37,000  Level Denver Center
02:00PM 36.9064 -107.7244 56° Northeast 524 603 37,000  Level Denver Center
02:01PM 36.9994 -107.5578 55° Northeast 524 603 37,000  Level Denver Center
02:02PM 37.0792 -107.4117 56° Northeast 529 609 37,000  Level Denver Center
02:03PM 37.1706 -107.2403 56° Northeast 530 610 37,000  Level Denver Center
02:04PM 37.2508 -107.0936 55° Northeast 532 612 37,000  Level Denver Center
02:05PM 37.3436 -106.9222 56° Northeast 533 613 37,000  Level Denver Center
02:06PM 37.4236 -106.7719 56° Northeast 538 619 37,000  Level Denver Center
02:07PM 37.5019 -106.6200 57° Northeast 539 620 37,000  Level Denver Center
02:08PM 37.5964 -106.4453 56° Northeast 540 621 37,000  Level Denver Center
02:09PM 37.6753 -106.3003 55° Northeast 522 601 37,000  Level Denver Center
02:10PM 37.7519 -106.1508 57° Northeast 515 593 37,000  Level Denver Center
02:11PM 37.8394 -105.9814 57° Northeast 514 592 37,000  Level Denver Center
02:12PM 37.9131 -105.8389 57° Northeast 506 582 37,000  Level Denver Center
02:13PM 37.9867 -105.6644 62° Northeast 502 578 37,000  Level Denver Center
02:14PM 38.0433 -105.5039 66° East 515 593 37,000  Level Denver Center
02:15PM 38.1008 -105.3408 66° East 525 604 37,000  Level Denver Center
02:16PM 38.1667 -105.1500 66° East 526 605 37,000  Level Denver Center
02:18PM 38.2239 -104.9875 66° East 526 605 37,000  Level Denver Center
02:19PM 38.2883 -104.8008 66° East 515 593 37,000  Level Denver Center
02:20PM 38.3436 -104.6397 66° East 505 581 37,000  Level Denver Center
02:21PM 38.4081 -104.4500 67° East 499 574 37,000  Level Denver Center
02:22PM 38.4636 -104.2878 66° East 498 573 37,000  Level Denver Center
02:23PM 38.5181 -104.1258 67° East 497 572 37,000  Level Denver Center
02:24PM 38.5800 -103.9431 67° East 501 577 37,000  Level Denver Center
02:25PM 38.6336 -103.7800 67° East 515 593 37,000  Level Denver Center
02:26PM 38.6964 -103.5919 67° East 514 592 37,000  Level Denver Center
02:27PM 38.7514 -103.4250 67° East 513 590 37,000  Level Denver Center
02:28PM 38.8061 -103.2558 67° East 511 588 37,000  Level Denver Center
02:29PM 38.8622 -103.0839 67° East 518 596 37,000 540 Level Denver Center
02:30PM 38.9175 -102.9156 67° East 510 587 38,200 840 Climbing Denver Center
02:31PM 38.9728 -102.7400 68° East 519 597 38,800 360 Climbing Denver Center
02:32PM 39.0353 -102.5472 67° East 522 601 39,000 60 Climbing Denver Center
02:33PM 39.0886 -102.3806 68° East 525 604 39,000  Level Denver Center
02:34PM 39.1406 -102.2158 68° East 521 600 39,000  Level Denver Center
02:35PM 39.2011 -102.0211 68° East 521 600 39,000  Level Denver Center
02:36PM 39.2544 -101.8542 68° East 524 603 39,000  Level Denver Center
02:37PM 39.3089 -101.6758 68° East 528 608 39,000  Level Denver Center
02:38PM 39.3706 -101.4794 68° East 531 611 39,000  Level Denver Center
02:39PM 39.4214 -101.3108 69° East 528 608 39,000  Level Denver Center
02:40PM 39.4822 -101.1117 68° East 533 613 39,000  Level Denver Center
02:41PM 39.5331 -100.9425 69° East 529 609 39,000  Level Denver Center
02:42PM 39.5922 -100.7456 69° East 525 604 39,000  Level Denver Center
02:43PM 39.6419 -100.5756 69° East 528 608 39,000  Level Denver Center
02:44PM 39.6911 -100.4069 69° East 525 604 39,000  Level Denver Center
02:45PM 39.7494 -100.2111 69° East 523 602 39,000  Level Denver Center
02:46PM 39.7983 -100.0433 69° East 521 600 39,000  Level Denver Center
02:47PM 39.8558 -99.8472 69° East 521 600 39,000  Level Denver Center
02:48PM 39.9053 -99.6767 69° East 525 604 39,000  Level Denver Center
02:50PM 39.9617 -99.4775 70° East 527 606 39,000  Level Denver Center
02:51PM 40.0100 -99.3056 70° East 527 606 39,000  Level Denver Center
02:52PM 40.0581 -99.1342 70° East 527 606 39,000  Level Denver Center
02:53PM 40.1147 -98.9325 70° East 529 609 39,000  Level Denver Center
02:53PM 40.1325 -98.8603 72° East 529 609 39,000  Level Minneapolis Center
02:54PM 40.1850 -98.6814 69° East 529 609 39,000  Level Minneapolis Center
02:55PM 40.2344 -98.5003 70° East 529 609 39,000  Level Minneapolis Center
02:56PM 40.2828 -98.3192 71° East 528 608 39,000  Level Minneapolis Center
02:57PM 40.3314 -98.1375 71° East 528 608 39,000  Level Minneapolis Center
02:58PM 40.3811 -97.9569 70° East 528 608 39,000  Level Minneapolis Center
02:59PM 40.4297 -97.7747 71° East 528 608 39,000  Level Minneapolis Center
03:00PM 40.4878 -97.5553 71° East 530 610 39,000  Level Minneapolis Center
03:01PM 40.5367 -97.3722 71° East 532 612 39,000  Level Minneapolis Center
03:02PM 40.5836 -97.1872 71° East 533 613 39,000  Level Minneapolis Center
03:03PM 40.6317 -97.0019 71° East 535 616 39,000  Level Minneapolis Center
03:04PM 40.6783 -96.8133 72° East 539 620 39,000  Level Minneapolis Center
03:05PM 40.7258 -96.6297 71° East 535 616 39,000  Level Minneapolis Center
03:06PM 40.7731 -96.4464 71° East 532 612 39,000  Level Minneapolis Center
03:07PM 40.8181 -96.2625 72° East 531 611 39,000  Level Minneapolis Center
03:08PM 40.8736 -96.0436 71° East 529 609 39,000  Level Minneapolis Center
03:09PM 40.9197 -95.8633 71° East 527 606 39,000  Level Minneapolis Center
03:10PM 40.9633 -95.6803 72° East 526 605 39,000  Level Minneapolis Center
03:11PM 41.0069 -95.4956 73° East 529 609 39,000  Level Minneapolis Center
03:12PM 41.0514 -95.3117 72° East 529 609 39,000  Level Minneapolis Center
03:14PM 41.0961 -95.1258 72° East 531 611 39,000  Level Minneapolis Center
03:15PM 41.1492 -94.9031 72° East 531 611 39,000  Level Minneapolis Center
03:16PM 41.1928 -94.7144 73° East 534 615 39,000  Level Minneapolis Center
03:17PM 41.2375 -94.5242 73° East 539 620 39,000  Level Minneapolis Center
03:18PM 41.2803 -94.3350 73° East 537 618 39,000  Level Minneapolis Center
03:19PM 41.3203 -94.1547 73° East 536 617 39,000  Level Minneapolis Center
03:20PM 41.3647 -93.9656 73° East 537 618 39,000  Level Minneapolis Center
03:21PM 41.4164 -93.7397 73° East 535 616 39,000  Level Minneapolis Center
03:22PM 41.4464 -93.5494 78° East 532 612 39,000  Level Minneapolis Center
03:23PM 41.4653 -93.3550 83° East 534 615 39,000  Level Minneapolis Center
03:24PM 41.4842 -93.1625 82° East 528 608 39,000  Level Minneapolis Center
03:25PM 41.5028 -92.9714 83° East 524 603 39,000  Level Minneapolis Center
03:26PM 41.5200 -92.7786 83° East 524 603 39,000  Level Minneapolis Center
03:27PM 41.5378 -92.5850 83° East 525 604 39,000  Level Minneapolis Center
03:28PM 41.5544 -92.3911 83° East 527 606 39,000  Level Minneapolis Center
03:29PM 41.5742 -92.1600 83° East 527 606 39,000  Level Minneapolis Center
03:30PM 41.5906 -91.9647 84° East 528 608 39,000  Level Minneapolis Center
03:31PM 41.6067 -91.7714 84° East 527 606 39,000  Level Minneapolis Center
03:32PM 41.6250 -91.5411 84° East 530 610 39,000  Level Chicago Center
03:33PM 41.6400 -91.3483 84° East 529 609 39,000  Level Chicago Center
03:34PM 41.6550 -91.1550 84° East 529 609 39,000  Level Chicago Center
03:35PM 41.6689 -90.9667 84° East 519 597 39,000  Level Chicago Center
03:36PM 41.6858 -90.7417 84° East 514 592 39,000  Level Chicago Center
03:37PM 41.6992 -90.5506 85° East 511 588 39,000  Level Chicago Center
03:38PM 41.7122 -90.3606 85° East 512 589 39,000  Level Chicago Center
03:39PM 41.7253 -90.1719 85° East 507 583 39,000  Level Chicago Center
03:40PM 41.7386 -89.9800 85° East 513 590 39,000  Level Chicago Center
03:41PM 41.7511 -89.7900 85° East 512 589 39,000  Level Chicago Center
03:42PM 41.7636 -89.5983 85° East 515 593 39,000  Level Chicago Center
03:43PM 41.7758 -89.4017 85° East 514 592 39,000  Level Chicago Center
03:44PM 41.7867 -89.2114 86° East 514 592 39,000  Level Chicago Center
03:45PM 41.7969 -89.0211 86° East 514 592 39,000  Level Chicago Center
03:46PM 41.8089 -88.7914 86° East 516 594 39,000  Level Chicago Center
03:48PM 41.8194 -88.5981 86° East 520 598 39,000  Level Chicago Center
03:49PM 41.8303 -88.4050 86° East 520 598 39,000  Level Chicago Center
03:50PM 41.8403 -88.2103 86° East 521 600 39,000  Level Chicago Center
03:51PM 41.8506 -88.0144 86° East 523 602 39,000  Level Chicago Center
03:52PM 41.8586 -87.8206 87° East 520 598 39,000  Level Chicago Center
03:53PM 41.8686 -87.6242 86° East 525 604 39,000  Level Chicago Center
03:54PM 41.8769 -87.4264 87° East 531 611 39,000  Level Chicago Center
03:55PM 41.8869 -87.1889 87° East 530 610 39,000  Level Chicago Center
03:56PM 41.8939 -86.9908 87° East 532 612 39,000  Level Chicago Center
03:57PM 41.9014 -86.7942 87° East 528 608 39,000  Level Chicago Center
03:58PM 41.9081 -86.6150 87° East 530 610 39,000  Level Chicago Center
03:59PM 41.9169 -86.3767 87° East 532 612 39,000  Level Chicago Center
04:00PM 41.9239 -86.1783 87° East 532 612 39,000  Level Chicago Center
04:01PM 41.9308 -85.9800 87° East 533 613 39,000  Level Chicago Center
04:02PM 41.9367 -85.7789 88° East 536 617 39,000  Level Chicago Center
04:03PM 41.9422 -85.5761 88° East 539 620 39,000  Level Chicago Center
04:04PM 41.9769 -85.3822 76° East 540 621 39,000  Level Chicago Center
04:05PM 42.0628 -85.2108 56° Northeast 524 603 39,000  Level Chicago Center
04:06PM 42.0731 -85.0158 86° East 532 612 39,000  Level Chicago Center
04:07PM 42.0667 -84.8181 92° East 533 613 39,000  Level Chicago Center
04:08PM 42.0600 -84.6200 93° East 532 612 39,000  Level Chicago Center
04:09PM 42.0514 -84.3836 93° East 523 602 39,000  Level Cleveland Center
04:10PM 42.0403 -84.2097 95° East 523 602 39,000  Level Cleveland Center
04:11PM 42.0317 -84.0133 93° East 523 602 39,000  Level Cleveland Center
04:12PM 42.0206 -83.8172 94° East 523 602 39,000  Level Cleveland Center
04:13PM 42.0114 -83.6211 94° East 523 602 39,000  Level Cleveland Center
04:14PM 42.0039 -83.4222 93° East 530 610 39,000  Level Cleveland Center
04:15PM 41.9925 -83.2039 94° East 530 610 39,000  Level Cleveland Center
04:16PM 41.9822 -83.0050 94° East 530 610 39,000  Level Cleveland Center
04:17PM 41.9717 -82.8092 94° East 530 610 39,000  Level Cleveland Center
04:18PM 41.9628 -82.6133 93° East 530 610 39,000  Level Cleveland Center
04:19PM 41.9494 -82.4147 95° East 530 610 39,000  Level Cleveland Center
04:20PM 41.9419 -82.2217 93° East 525 604 39,000  Level Cleveland Center
04:21PM 41.9300 -82.0317 95° East 520 598 39,000  Level Cleveland Center
04:22PM 41.9175 -81.8389 95° East 515 593 39,000  Level Cleveland Center
04:23PM 41.9008 -81.6489 97° East 520 598 39,000  Level Cleveland Center
04:24PM 41.8836 -81.4589 97° East 520 598 39,000  Level Cleveland Center
04:25PM 41.8681 -81.2831 97° East 525 604 39,000  Level Cleveland Center
04:26PM 41.8506 -81.0850 97° East 530 610 39,000  Level Cleveland Center
04:27PM 41.8303 -80.8897 98° East 530 610 39,000  Level Cleveland Center
04:28PM 41.8119 -80.6917 97° East 535 616 39,000  Level Cleveland Center
04:29PM 41.7911 -80.4886 98° East 545 627 39,000  Level Cleveland Center
04:30PM 41.7700 -80.2742 97° East 540 621 39,000  Level Cleveland Center
04:31PM 41.7503 -80.0739 97° East 535 616 39,000  Level Cleveland Center
04:32PM 41.7286 -79.8764 98° East 540 621 39,000  Level Cleveland Center
04:33PM 41.7083 -79.6764 98° East 545 627 39,000  Level Cleveland Center
04:34PM 41.6878 -79.4794 98° East 540 621 39,000  Level Cleveland Center
04:35PM 41.6694 -79.3211 99° East 540 621 39,000  Level Cleveland Center
04:36PM 41.6417 -79.0800 99° East 540 621 39,000 -300 Level Cleveland Center
04:37PM 41.6200 -78.8806 98° East 540 621 38,400 -780 Descending Cleveland Center
04:38PM 41.5983 -78.6867 98° East 540 621 37,500 -720 Descending Cleveland Center
04:39PM 41.5783 -78.4986 98° East 529 609 37,000 -300 Descending Cleveland Center
04:40PM 41.5586 -78.3353 99° East 515 593 37,000  Level Cleveland Center
04:41PM 41.5419 -78.2214 101° East 505 581 37,000 -120 Level New York Center
04:42PM 41.5178 -78.0358 100° East 510 587 36,900 -600 Descending New York Center
04:43PM 41.4972 -77.8619 99° East 516 594 35,900 -960 Descending New York Center
04:44PM 41.4706 -77.6761 101° East 516 594 35,000 -480 Descending New York Center
04:45PM 41.4425 -77.4742 100° East 511 588 35,000 -180 Level New York Center
04:46PM 41.4114 -77.2856 102° East 511 588 34,700 -660 Descending New York Center
04:47PM 41.3861 -77.1006 100° East 511 588 33,700 -1,560 Descending New York Center
04:48PM 41.3581 -76.9183 102° East 511 588 31,600 -2,700 Descending New York Center
04:49PM 41.3239 -76.7328 104° East 511 588 28,400 -3,060 Descending New York Center
04:50PM 41.2764 -76.5544 109° East 511 588 25,600 -2,700 Descending New York Center
04:51PM 41.2303 -76.3850 110° East 504 580 23,000 -2,580 Descending New York Center
04:52PM 41.1892 -76.2383 110° East 486 559 20,500 -2,460 Descending New York Center
04:53PM 41.1486 -76.0781 109° East 467 537 18,100 -1,320 Descending New York Center
04:54PM 41.1039 -75.9119 110° East 437 503 18,000 -1,080 Descending New York Center
04:55PM 41.0625 -75.7603 110° East 430 495 16,000 -2,220 Descending New York Center
04:56PM 41.0267 -75.6228 109° East 440 506 13,500 -1,620 Descending New York Center
04:57PM 40.9828 -75.4683 111° Southeast 425 489 12,900 -1,080 Descending New York Center
04:58PM 40.9481 -75.3453 110° East 412 474 11,400 -1,320 Descending New York Center
04:59PM 40.9075 -75.2053 111° Southeast 386 444 10,300 -1,140 Descending New York Center
05:00PM 40.8764 -75.0906 110° East 342 394 9,200 -1,200 Descending New York Center
05:01PM 40.8447 -74.9844 111° Southeast 318 366 7,900 -1,020 Descending New York Center
05:03PM 40.8022 -74.7733 105° East 303 349 6,200 -660 Descending New York Center
05:04PM 40.7906 -74.6794 99° East 292 336 6,000 -240 Descending New York Center
05:05PM 40.8500 -74.5833 51° Northeast 281 323 5,700 -540 Descending New York TRACON
05:06PM 40.9075 -74.5464 26° Northeast 259 298 5,000 -420 Descending New York Center
05:07PM 40.9758 -74.4978 28° Northeast 279 321 5,000  Level New York Center
05:08PM 41.0419 -74.4492 29° Northeast 272 313 5,000  Level New York Center
05:09PM 41.0611 -74.3678 73° East 224 258 5,000 60 Level New York Center
05:09PM 41.0500 -74.3500 130° Southeast 246 283 5,100 60 Climbing New York TRACON
05:10PM 41.0333 -74.2667 105° East 241 277 5,100 -300 Level New York TRACON
05:11PM 41.0167 -74.1833 105° East 232 267 4,500 -540 Descending New York TRACON
05:12PM 40.9667 -74.1333 143° Southeast 191 220 4,100 -360 Descending New York TRACON
05:13PM 40.9167 -74.1000 153° Southeast 184 212 3,800 -540 Descending New York TRACON
05:14PM 40.8833 -74.0833 159° South 179 206 3,100 -420 Descending New York TRACON
05:15PM 40.8333 -74.0833 180° South 172 198 3,000 -480 Descending New York TRACON
05:16PM 40.7833 -74.1000 194° South 170 196 2,100 -900 Descending New York TRACON
05:17PM 40.7500 -74.1333 217° Southwest 140 161 1,200 -780 Descending New York TRACON
05:18PM 40.7167 -74.1500 201° Southwest 123 142 600 -600 Descending New York TRACON
05:20PM 40.6925 -74.1687 180° South  Level Estimated
05:27PM 40.6925 -74.1687 180° South  Level Estimated
05:28PM 40.6925 -74.1687 180° South  Level Estimated